sensor_id;sensor_type;location;lat;lon;timestamp;pressure;altitude;pressure_sealevel;temperature;humidity
55675;BME280;41562;44.330;23.802;2023-04-10T00:00:08;100635.44;;;7.60;100.00
55675;BME280;41562;44.330;23.802;2023-04-10T00:02:37;100631.00;;;7.66;100.00
55675;BME280;41562;44.330;23.802;2023-04-10T00:05:05;100631.78;;;7.66;100.00
55675;BME280;41562;44.330;23.802;2023-04-10T00:07:32;100627.44;;;7.60;100.00
55675;BME280;41562;44.330;23.802;2023-04-10T00:10:00;100634.38;;;7.61;100.00
55675;BME280;41562;44.330;23.802;2023-04-10T00:12:27;100624.06;;;7.48;100.00
55675;BME280;41562;44.330;23.802;2023-04-10T00:14:55;100626.13;;;7.46;100.00
55675;BME280;41562;44.330;23.802;2023-04-10T00:17:22;100620.19;;;7.39;100.00
55675;BME280;41562;44.330;23.802;2023-04-10T00:19:50;100624.06;;;7.48;100.00
55675;BME280;41562;44.330;23.802;2023-04-10T00:22:17;100618.88;;;7.42;100.00
55675;BME280;41562;44.330;23.802;2023-04-10T00:24:44;100618.25;;;7.51;100.00
55675;BME280;41562;44.330;23.802;2023-04-10T00:27:11;100616.47;;;7.40;100.00
55675;BME280;41562;44.330;23.802;2023-04-10T00:29:38;100620.03;;;7.46;100.00
55675;BME280;41562;44.330;23.802;2023-04-10T00:32:06;100615.59;;;7.51;100.00
55675;BME280;41562;44.330;23.802;2023-04-10T00:34:33;100615.03;;;7.49;100.00
55675;BME280;41562;44.330;23.802;2023-04-10T00:37:00;100613.41;;;7.48;100.00
55675;BME280;41562;44.330;23.802;2023-04-10T00:39:27;100612.84;;;7.46;100.00
55675;BME280;41562;44.330;23.802;2023-04-10T00:41:55;100609.72;;;7.49;100.00
55675;BME280;41562;44.330;23.802;2023-04-10T00:44:23;100607.47;;;7.58;100.00
55675;BME280;41562;44.330;23.802;2023-04-10T00:46:50;100608.75;;;7.55;100.00
55675;BME280;41562;44.330;23.802;2023-04-10T00:49:17;100606.50;;;7.64;100.00
55675;BME280;41562;44.330;23.802;2023-04-10T00:51:44;100604.53;;;7.59;100.00
55675;BME280;41562;44.330;23.802;2023-04-10T00:54:12;100603.72;;;7.59;100.00
55675;BME280;41562;44.330;23.802;2023-04-10T00:56:40;100600.69;;;7.50;100.00
55675;BME280;41562;44.330;23.802;2023-04-10T00:59:08;100596.47;;;7.54;100.00
55675;BME280;41562;44.330;23.802;2023-04-10T01:01:35;100598.50;;;7.47;100.00
55675;BME280;41562;44.330;23.802;2023-04-10T01:04:02;100596.31;;;7.44;100.00
55675;BME280;41562;44.330;23.802;2023-04-10T01:06:57;100601.00;;;7.37;100.00
55675;BME280;41562;44.330;23.802;2023-04-10T01:09:40;100598.34;;;7.37;100.00
55675;BME280;41562;44.330;23.802;2023-04-10T01:12:24;100591.13;;;7.21;100.00
55675;BME280;41562;44.330;23.802;2023-04-10T01:20:23;100597.59;;;7.25;100.00
55675;BME280;41562;44.330;23.802;2023-04-10T01:26:09;100589.53;;;7.20;100.00
55675;BME280;41562;44.330;23.802;2023-04-10T01:31:10;100581.94;;;7.12;100.00
55675;BME280;41562;44.330;23.802;2023-04-10T01:33:47;100582.59;;;7.19;100.00
55675;BME280;41562;44.330;23.802;2023-04-10T01:36:24;100580.66;;;7.14;100.00
55675;BME280;41562;44.330;23.802;2023-04-10T01:38:53;100582.41;;;7.09;100.00
55675;BME280;41562;44.330;23.802;2023-04-10T01:41:24;100569.03;;;7.04;100.00
55675;BME280;41562;44.330;23.802;2023-04-10T01:43:52;100583.94;;;7.05;100.00
55675;BME280;41562;44.330;23.802;2023-04-10T01:46:21;100577.59;;;7.06;100.00
55675;BME280;41562;44.330;23.802;2023-04-10T01:48:50;100572.94;;;7.13;100.00
55675;BME280;41562;44.330;23.802;2023-04-10T01:51:20;100572.84;;;7.08;100.00
55675;BME280;41562;44.330;23.802;2023-04-10T01:53:48;100579.13;;;7.02;100.00
55675;BME280;41562;44.330;23.802;2023-04-10T01:56:16;100578.53;;;7.00;100.00
55675;BME280;41562;44.330;23.802;2023-04-10T01:58:44;100570.41;;;7.06;100.00
55675;BME280;41562;44.330;23.802;2023-04-10T02:01:17;100572.78;;;6.91;100.00
55675;BME280;41562;44.330;23.802;2023-04-10T02:03:57;100573.75;;;6.85;100.00
55675;BME280;41562;44.330;23.802;2023-04-10T02:06:43;100573.06;;;6.78;100.00
55675;BME280;41562;44.330;23.802;2023-04-10T02:09:36;100562.84;;;6.70;100.00
55675;BME280;41562;44.330;23.802;2023-04-10T02:12:15;100569.88;;;6.76;100.00
55675;BME280;41562;44.330;23.802;2023-04-10T02:14:46;100568.16;;;6.70;100.00
55675;BME280;41562;44.330;23.802;2023-04-10T02:17:16;100574.75;;;6.67;100.00
55675;BME280;41562;44.330;23.802;2023-04-10T02:19:46;100568.19;;;6.86;100.00
55675;BME280;41562;44.330;23.802;2023-04-10T02:22:15;100565.81;;;6.73;100.00
55675;BME280;41562;44.330;23.802;2023-04-10T02:24:43;100564.78;;;6.74;100.00
55675;BME280;41562;44.330;23.802;2023-04-10T02:27:10;100558.44;;;6.75;100.00
55675;BME280;41562;44.330;23.802;2023-04-10T02:29:37;100561.63;;;6.77;100.00
55675;BME280;41562;44.330;23.802;2023-04-10T02:32:05;100560.69;;;6.55;100.00
55675;BME280;41562;44.330;23.802;2023-04-10T02:34:33;100559.41;;;6.58;100.00
55675;BME280;41562;44.330;23.802;2023-04-10T02:37:00;100559.72;;;6.44;100.00
55675;BME280;41562;44.330;23.802;2023-04-10T02:39:27;100557.28;;;6.43;100.00
55675;BME280;41562;44.330;23.802;2023-04-10T02:41:55;100553.94;;;6.36;100.00
55675;BME280;41562;44.330;23.802;2023-04-10T02:44:22;100551.28;;;6.36;100.00
55675;BME280;41562;44.330;23.802;2023-04-10T02:46:50;100549.66;;;6.35;100.00
55675;BME280;41562;44.330;23.802;2023-04-10T02:49:17;100554.72;;;6.48;100.00
55675;BME280;41562;44.330;23.802;2023-04-10T02:51:44;100554.03;;;6.41;100.00
55675;BME280;41562;44.330;23.802;2023-04-10T02:54:12;100557.81;;;6.45;100.00
55675;BME280;41562;44.330;23.802;2023-04-10T02:56:39;100548.88;;;6.34;100.00
55675;BME280;41562;44.330;23.802;2023-04-10T02:59:06;100560.91;;;6.25;100.00
55675;BME280;41562;44.330;23.802;2023-04-10T03:01:34;100558.38;;;6.19;100.00
55675;BME280;41562;44.330;23.802;2023-04-10T03:04:02;100566.22;;;6.14;100.00
55675;BME280;41562;44.330;23.802;2023-04-10T03:06:30;100565.06;;;6.10;100.00
55675;BME280;41562;44.330;23.802;2023-04-10T03:08:57;100563.63;;;6.42;100.00
55675;BME280;41562;44.330;23.802;2023-04-10T03:11:24;100560.78;;;6.32;100.00
55675;BME280;41562;44.330;23.802;2023-04-10T03:13:52;100566.09;;;6.32;100.00
55675;BME280;41562;44.330;23.802;2023-04-10T03:16:19;100564.47;;;6.31;100.00
55675;BME280;41562;44.330;23.802;2023-04-10T03:18:46;100563.66;;;6.30;100.00
55675;BME280;41562;44.330;23.802;2023-04-10T03:21:14;100565.88;;;6.22;100.00
55675;BME280;41562;44.330;23.802;2023-04-10T03:23:41;100569.56;;;6.21;100.00
55675;BME280;41562;44.330;23.802;2023-04-10T03:26:08;100573.25;;;6.20;100.00
55675;BME280;41562;44.330;23.802;2023-04-10T03:28:35;100569.09;;;6.24;100.00
55675;BME280;41562;44.330;23.802;2023-04-10T03:31:03;100573.03;;;6.10;100.00
55675;BME280;41562;44.330;23.802;2023-04-10T03:33:31;100568.66;;;6.15;100.00
55675;BME280;41562;44.330;23.802;2023-04-10T03:35:59;100565.31;;;6.08;100.00
55675;BME280;41562;44.330;23.802;2023-04-10T03:38:26;100573.88;;;5.98;100.00
55675;BME280;41562;44.330;23.802;2023-04-10T03:40:54;100574.59;;;8.24;100.00
55675;BME280;41562;44.330;23.802;2023-04-10T03:43:23;100574.72;;;10.11;98.29
55675;BME280;41562;44.330;23.802;2023-04-10T03:45:51;100584.81;;;10.45;92.29
55675;BME280;41562;44.330;23.802;2023-04-10T03:48:19;100589.69;;;10.69;86.09
55675;BME280;41562;44.330;23.802;2023-04-10T03:50:47;100596.44;;;10.86;83.79
55675;BME280;41562;44.330;23.802;2023-04-10T03:53:15;100601.50;;;10.88;84.00
55675;BME280;41562;44.330;23.802;2023-04-10T03:55:43;100599.09;;;10.81;83.89
55675;BME280;41562;44.330;23.802;2023-04-10T03:58:11;100594.59;;;10.25;86.60
55675;BME280;41562;44.330;23.802;2023-04-10T04:00:39;100595.44;;;11.58;89.00
55675;BME280;41562;44.330;23.802;2023-04-10T04:03:07;100606.97;;;11.69;80.66
55675;BME280;41562;44.330;23.802;2023-04-10T04:05:36;100603.50;;;11.68;81.25
55675;BME280;41562;44.330;23.802;2023-04-10T04:08:04;100608.13;;;10.60;83.25
55675;BME280;41562;44.330;23.802;2023-04-10T04:10:32;100604.84;;;10.01;84.80
55675;BME280;41562;44.330;23.802;2023-04-10T04:12:59;100604.69;;;9.76;86.82
55675;BME280;41562;44.330;23.802;2023-04-10T04:15:27;100602.31;;;8.67;90.43
55675;BME280;41562;44.330;23.802;2023-04-10T04:17:54;100608.91;;;7.49;98.18
55675;BME280;41562;44.330;23.802;2023-04-10T04:20:21;100607.56;;;7.18;100.00
55675;BME280;41562;44.330;23.802;2023-04-10T04:22:49;100596.03;;;6.84;100.00
55675;BME280;41562;44.330;23.802;2023-04-10T04:25:16;100595.72;;;6.80;100.00
55675;BME280;41562;44.330;23.802;2023-04-10T04:27:43;100599.56;;;6.73;100.00
55675;BME280;41562;44.330;23.802;2023-04-10T04:30:11;100604.00;;;6.56;100.00
55675;BME280;41562;44.330;23.802;2023-04-10T04:32:38;100605.75;;;6.50;100.00
55675;BME280;41562;44.330;23.802;2023-04-10T04:35:06;100601.78;;;6.64;100.00
55675;BME280;41562;44.330;23.802;2023-04-10T04:37:33;100604.19;;;6.66;100.00
55675;BME280;41562;44.330;23.802;2023-04-10T04:40:03;100606.97;;;6.71;100.00
55675;BME280;41562;44.330;23.802;2023-04-10T04:42:31;100604.06;;;6.72;100.00
55675;BME280;41562;44.330;23.802;2023-04-10T04:44:58;100607.16;;;6.81;100.00
55675;BME280;41562;44.330;23.802;2023-04-10T04:47:26;100609.09;;;6.85;100.00
55675;BME280;41562;44.330;23.802;2023-04-10T04:49:53;100609.28;;;6.96;100.00
55675;BME280;41562;44.330;23.802;2023-04-10T04:52:21;100610.63;;;7.10;100.00
55675;BME280;41562;44.330;23.802;2023-04-10T04:54:48;100612.59;;;7.14;100.00
55675;BME280;41562;44.330;23.802;2023-04-10T04:57:15;100612.44;;;7.38;100.00
55675;BME280;41562;44.330;23.802;2023-04-10T04:59:42;100614.75;;;7.34;100.00
55675;BME280;41562;44.330;23.802;2023-04-10T05:02:09;100606.56;;;7.36;100.00
55675;BME280;41562;44.330;23.802;2023-04-10T05:04:43;100612.84;;;7.30;100.00
55675;BME280;41562;44.330;23.802;2023-04-10T05:07:10;100620.75;;;7.41;100.00
55675;BME280;41562;44.330;23.802;2023-04-10T05:09:38;100616.41;;;7.52;100.00
55675;BME280;41562;44.330;23.802;2023-04-10T05:12:08;100623.31;;;7.53;100.00
55675;BME280;41562;44.330;23.802;2023-04-10T05:14:35;100615.59;;;7.68;100.00
55675;BME280;41562;44.330;23.802;2023-04-10T05:17:02;100618.41;;;7.78;100.00
55675;BME280;41562;44.330;23.802;2023-04-10T05:19:30;100620.34;;;7.83;100.00
55675;BME280;41562;44.330;23.802;2023-04-10T05:21:57;100631.84;;;8.05;99.84
55675;BME280;41562;44.330;23.802;2023-04-10T05:24:24;100632.38;;;8.24;100.00
55675;BME280;41562;44.330;23.802;2023-04-10T05:26:52;100628.44;;;8.65;100.00
55675;BME280;41562;44.330;23.802;2023-04-10T05:29:19;100630.53;;;8.63;97.18
55675;BME280;41562;44.330;23.802;2023-04-10T05:31:47;100631.34;;;8.85;96.63
55675;BME280;41562;44.330;23.802;2023-04-10T05:34:14;100633.63;;;8.76;96.36
55675;BME280;41562;44.330;23.802;2023-04-10T05:36:44;100629.81;;;9.16;99.42
55675;BME280;41562;44.330;23.802;2023-04-10T05:39:12;100634.53;;;9.36;95.10
55675;BME280;41562;44.330;23.802;2023-04-10T05:41:39;100631.63;;;9.42;94.23
55675;BME280;41562;44.330;23.802;2023-04-10T05:44:06;100636.28;;;9.52;93.06
55675;BME280;41562;44.330;23.802;2023-04-10T05:46:34;100642.00;;;10.02;91.89
55675;BME280;41562;44.330;23.802;2023-04-10T05:49:01;100638.81;;;10.05;92.82
55675;BME280;41562;44.330;23.802;2023-04-10T05:51:29;100641.00;;;10.14;90.02
55675;BME280;41562;44.330;23.802;2023-04-10T05:53:56;100641.66;;;10.31;88.54
55675;BME280;41562;44.330;23.802;2023-04-10T05:56:23;100639.75;;;10.83;90.83
55675;BME280;41562;44.330;23.802;2023-04-10T05:58:51;100642.94;;;10.75;86.83
55675;BME280;41562;44.330;23.802;2023-04-10T06:01:18;100646.25;;;11.08;85.94
55675;BME280;41562;44.330;23.802;2023-04-10T06:03:47;100647.44;;;11.83;83.87
55675;BME280;41562;44.330;23.802;2023-04-10T06:06:14;100643.66;;;12.04;85.04
55675;BME280;41562;44.330;23.802;2023-04-10T06:08:42;100657.06;;;12.19;81.56
55675;BME280;41562;44.330;23.802;2023-04-10T06:11:09;100646.34;;;11.99;81.29
55675;BME280;41562;44.330;23.802;2023-04-10T06:13:36;100651.13;;;12.27;81.70
55675;BME280;41562;44.330;23.802;2023-04-10T06:16:04;100643.94;;;11.92;82.07
55675;BME280;41562;44.330;23.802;2023-04-10T06:18:32;100642.63;;;11.75;82.77
55675;BME280;41562;44.330;23.802;2023-04-10T06:20:59;100638.28;;;11.53;84.37
55675;BME280;41562;44.330;23.802;2023-04-10T06:23:27;100636.13;;;11.25;85.51
55675;BME280;41562;44.330;23.802;2023-04-10T06:25:54;100639.38;;;11.47;86.03
55675;BME280;41562;44.330;23.802;2023-04-10T06:28:22;100631.34;;;11.73;87.10
55675;BME280;41562;44.330;23.802;2023-04-10T06:30:49;100633.47;;;11.65;85.59
55675;BME280;41562;44.330;23.802;2023-04-10T06:33:17;100637.25;;;11.90;86.57
55675;BME280;41562;44.330;23.802;2023-04-10T06:35:44;100641.00;;;11.99;87.72
55675;BME280;41562;44.330;23.802;2023-04-10T06:38:11;100633.75;;;12.04;86.62
55675;BME280;41562;44.330;23.802;2023-04-10T06:40:40;100636.66;;;12.23;85.67
55675;BME280;41562;44.330;23.802;2023-04-10T06:43:07;100644.63;;;12.48;85.80
55675;BME280;41562;44.330;23.802;2023-04-10T06:45:34;100642.22;;;12.47;85.06
55675;BME280;41562;44.330;23.802;2023-04-10T06:48:02;100641.06;;;12.68;84.05
55675;BME280;41562;44.330;23.802;2023-04-10T06:50:30;100641.94;;;12.54;83.20
55675;BME280;41562;44.330;23.802;2023-04-10T06:52:59;100640.31;;;12.63;85.34
55675;BME280;41562;44.330;23.802;2023-04-10T06:55:27;100642.59;;;12.84;85.44
55675;BME280;41562;44.330;23.802;2023-04-10T06:57:55;100639.81;;;13.05;85.04
55675;BME280;41562;44.330;23.802;2023-04-10T07:00:23;100645.44;;;13.08;84.63
55675;BME280;41562;44.330;23.802;2023-04-10T07:02:51;100637.19;;;13.44;85.69
55675;BME280;41562;44.330;23.802;2023-04-10T07:05:18;100636.34;;;13.48;83.81
55675;BME280;41562;44.330;23.802;2023-04-10T07:07:46;100638.16;;;13.58;81.26
55675;BME280;41562;44.330;23.802;2023-04-10T07:10:13;100640.22;;;13.71;81.92
55675;BME280;41562;44.330;23.802;2023-04-10T07:12:41;100637.06;;;14.17;83.09
55675;BME280;41562;44.330;23.802;2023-04-10T07:15:09;100640.91;;;14.63;77.55
55675;BME280;41562;44.330;23.802;2023-04-10T07:17:37;100642.44;;;14.69;71.30
55675;BME280;41562;44.330;23.802;2023-04-10T07:20:05;100638.91;;;14.93;69.41
55675;BME280;41562;44.330;23.802;2023-04-10T07:22:32;100650.06;;;14.38;64.91
55675;BME280;41562;44.330;23.802;2023-04-10T07:24:59;100644.94;;;14.84;65.35
55675;BME280;41562;44.330;23.802;2023-04-10T07:27:28;100646.72;;;15.13;64.00
55675;BME280;41562;44.330;23.802;2023-04-10T07:29:55;100645.03;;;14.98;63.62
55675;BME280;41562;44.330;23.802;2023-04-10T07:32:23;100645.91;;;14.94;63.73
55675;BME280;41562;44.330;23.802;2023-04-10T07:34:51;100641.41;;;15.08;62.98
55675;BME280;41562;44.330;23.802;2023-04-10T07:37:18;100646.06;;;14.60;63.15
55675;BME280;41562;44.330;23.802;2023-04-10T07:39:45;100646.50;;;14.43;63.95
55675;BME280;41562;44.330;23.802;2023-04-10T07:42:13;100638.00;;;14.07;64.47
55675;BME280;41562;44.330;23.802;2023-04-10T07:44:40;100640.91;;;14.63;64.46
55675;BME280;41562;44.330;23.802;2023-04-10T07:47:11;100640.06;;;14.86;64.04
55675;BME280;41562;44.330;23.802;2023-04-10T07:49:39;100638.97;;;14.87;63.64
55675;BME280;41562;44.330;23.802;2023-04-10T07:52:07;100627.72;;;14.85;64.02
55675;BME280;41562;44.330;23.802;2023-04-10T07:54:34;100636.94;;;14.56;63.13
55675;BME280;41562;44.330;23.802;2023-04-10T07:57:02;100629.16;;;14.97;63.30
55675;BME280;41562;44.330;23.802;2023-04-10T07:59:30;100634.69;;;15.24;63.91
55675;BME280;41562;44.330;23.802;2023-04-10T08:01:57;100627.50;;;15.19;62.52
55675;BME280;41562;44.330;23.802;2023-04-10T08:04:25;100631.25;;;15.37;61.82
55675;BME280;41562;44.330;23.802;2023-04-10T08:06:52;100639.22;;;14.67;65.57
55675;BME280;41562;44.330;23.802;2023-04-10T08:09:19;100633.00;;;14.72;62.52
55675;BME280;41562;44.330;23.802;2023-04-10T08:11:47;100622.59;;;14.41;63.41
55675;BME280;41562;44.330;23.802;2023-04-10T08:14:14;100627.78;;;15.18;61.79
55675;BME280;41562;44.330;23.802;2023-04-10T08:16:44;100615.94;;;15.70;62.22
55675;BME280;41562;44.330;23.802;2023-04-10T08:19:12;100622.09;;;16.03;62.31
55675;BME280;41562;44.330;23.802;2023-04-10T08:21:39;100619.94;;;16.05;59.07
55675;BME280;41562;44.330;23.802;2023-04-10T08:24:07;100623.03;;;16.39;58.70
55675;BME280;41562;44.330;23.802;2023-04-10T08:26:34;100628.81;;;16.05;57.49
55675;BME280;41562;44.330;23.802;2023-04-10T08:29:01;100620.84;;;16.41;57.97
55675;BME280;41562;44.330;23.802;2023-04-10T08:31:29;100623.44;;;16.05;58.21
55675;BME280;41562;44.330;23.802;2023-04-10T08:33:57;100623.81;;;15.99;58.76
55675;BME280;41562;44.330;23.802;2023-04-10T08:36:26;100618.75;;;15.27;60.04
55675;BME280;41562;44.330;23.802;2023-04-10T08:38:54;100621.13;;;16.26;60.54
55675;BME280;41562;44.330;23.802;2023-04-10T08:41:21;100609.50;;;15.85;58.14
55675;BME280;41562;44.330;23.802;2023-04-10T08:43:49;100615.47;;;16.69;59.85
55675;BME280;41562;44.330;23.802;2023-04-10T08:46:16;100600.81;;;16.83;56.49
55675;BME280;41562;44.330;23.802;2023-04-10T08:51:24;100606.84;;;15.66;56.99
55675;BME280;41562;44.330;23.802;2023-04-10T08:53:57;100599.84;;;16.11;57.65
55675;BME280;41562;44.330;23.802;2023-04-10T08:56:25;100598.75;;;16.67;57.54
55675;BME280;41562;44.330;23.802;2023-04-10T08:58:52;100602.06;;;16.36;56.81
55675;BME280;41562;44.330;23.802;2023-04-10T09:01:20;100589.94;;;16.75;57.25
55675;BME280;41562;44.330;23.802;2023-04-10T09:03:48;100592.19;;;16.95;54.23
55675;BME280;41562;44.330;23.802;2023-04-10T09:06:15;100578.91;;;16.85;55.49
55675;BME280;41562;44.330;23.802;2023-04-10T09:08:43;100590.38;;;17.04;53.85
55675;BME280;41562;44.330;23.802;2023-04-10T09:11:10;100579.47;;;16.05;56.14
55675;BME280;41562;44.330;23.802;2023-04-10T09:13:42;100577.91;;;15.72;60.13
55675;BME280;41562;44.330;23.802;2023-04-10T09:16:11;100576.09;;;15.81;59.37
55675;BME280;41562;44.330;23.802;2023-04-10T09:18:45;100578.56;;;16.37;59.03
55675;BME280;41562;44.330;23.802;2023-04-10T09:21:18;100566.75;;;16.74;57.63
55675;BME280;41562;44.330;23.802;2023-04-10T09:23:47;100573.00;;;16.83;58.27
55675;BME280;41562;44.330;23.802;2023-04-10T09:29:03;100568.94;;;16.72;57.61
55675;BME280;41562;44.330;23.802;2023-04-10T09:31:37;100565.06;;;16.37;57.57
55675;BME280;41562;44.330;23.802;2023-04-10T09:34:19;100563.84;;;17.06;57.43
55675;BME280;41562;44.330;23.802;2023-04-10T09:36:53;100556.13;;;17.13;54.35
55675;BME280;41562;44.330;23.802;2023-04-10T09:39:21;100559.53;;;17.05;55.92
55675;BME280;41562;44.330;23.802;2023-04-10T09:41:53;100554.22;;;16.50;58.71
55675;BME280;41562;44.330;23.802;2023-04-10T09:44:32;100556.66;;;16.38;58.70
55675;BME280;41562;44.330;23.802;2023-04-10T09:49:53;100545.16;;;16.19;60.61
55675;BME280;41562;44.330;23.802;2023-04-10T09:52:34;100535.28;;;16.01;61.30
55675;BME280;41562;44.330;23.802;2023-04-10T09:55:03;100532.47;;;16.47;61.58
55675;BME280;41562;44.330;23.802;2023-04-10T09:57:33;100535.81;;;16.80;60.06
55675;BME280;41562;44.330;23.802;2023-04-10T10:00:03;100529.44;;;17.43;55.56
55675;BME280;41562;44.330;23.802;2023-04-10T10:02:35;100523.72;;;17.44;56.04
55675;BME280;41562;44.330;23.802;2023-04-10T10:05:03;100528.84;;;16.65;57.27
55675;BME280;41562;44.330;23.802;2023-04-10T10:07:31;100521.97;;;16.45;56.99
55675;BME280;41562;44.330;23.802;2023-04-10T10:09:59;100512.47;;;16.62;58.53
55675;BME280;41562;44.330;23.802;2023-04-10T10:12:39;100506.75;;;16.99;58.29
55675;BME280;41562;44.330;23.802;2023-04-10T10:15:22;100507.63;;;16.59;56.50
55675;BME280;41562;44.330;23.802;2023-04-10T10:20:27;100510.72;;;16.16;58.45
55675;BME280;41562;44.330;23.802;2023-04-10T10:22:54;100507.50;;;16.14;57.79
55675;BME280;41562;44.330;23.802;2023-04-10T10:25:25;100502.50;;;15.66;56.79
55675;BME280;41562;44.330;23.802;2023-04-10T10:27:52;100510.31;;;15.82;58.10
55675;BME280;41562;44.330;23.802;2023-04-10T10:30:20;100501.63;;;16.12;57.36
55675;BME280;41562;44.330;23.802;2023-04-10T10:32:58;100486.19;;;16.76;58.42
55675;BME280;41562;44.330;23.802;2023-04-10T10:35:26;100482.66;;;17.11;55.45
55675;BME280;41562;44.330;23.802;2023-04-10T10:37:59;100490.50;;;16.27;56.87
55675;BME280;41562;44.330;23.802;2023-04-10T10:40:32;100485.16;;;15.73;58.34
55675;BME280;41562;44.330;23.802;2023-04-10T10:45:33;100471.97;;;16.84;61.55
55675;BME280;41562;44.330;23.802;2023-04-10T10:48:03;100465.44;;;18.08;57.40
55675;BME280;41562;44.330;23.802;2023-04-10T10:50:50;100472.38;;;17.75;53.03
55675;BME280;41562;44.330;23.802;2023-04-10T10:58:46;100457.09;;;17.79;54.03
55675;BME280;41562;44.330;23.802;2023-04-10T11:01:15;100454.34;;;18.19;53.88
55675;BME280;41562;44.330;23.802;2023-04-10T11:03:43;100452.47;;;18.62;53.82
55675;BME280;41562;44.330;23.802;2023-04-10T11:06:14;100451.38;;;18.63;53.83
55675;BME280;41562;44.330;23.802;2023-04-10T11:16:18;100442.69;;;19.04;54.88
55675;BME280;41562;44.330;23.802;2023-04-10T11:21:59;100424.53;;;18.01;53.31
55675;BME280;41562;44.330;23.802;2023-04-10T11:24:28;100431.00;;;17.13;54.40
55675;BME280;41562;44.330;23.802;2023-04-10T11:26:56;100425.53;;;16.37;55.06
55675;BME280;41562;44.330;23.802;2023-04-10T11:31:58;100416.94;;;16.35;56.22
55675;BME280;41562;44.330;23.802;2023-04-10T11:34:26;100426.81;;;16.40;56.28
55675;BME280;41562;44.330;23.802;2023-04-10T11:36:54;100422.78;;;16.15;56.95
55675;BME280;41562;44.330;23.802;2023-04-10T11:39:22;100426.34;;;17.36;56.38
55675;BME280;41562;44.330;23.802;2023-04-10T11:41:51;100422.50;;;16.39;54.91
55675;BME280;41562;44.330;23.802;2023-04-10T11:44:29;100419.16;;;16.20;56.16
55675;BME280;41562;44.330;23.802;2023-04-10T11:46:56;100417.22;;;15.71;58.63
55675;BME280;41562;44.330;23.802;2023-04-10T11:49:28;100419.13;;;15.70;59.67
55675;BME280;41562;44.330;23.802;2023-04-10T11:51:56;100416.84;;;15.63;62.74
55675;BME280;41562;44.330;23.802;2023-04-10T11:54:25;100417.63;;;15.78;64.14
55675;BME280;41562;44.330;23.802;2023-04-10T11:59:32;100426.75;;;16.54;68.07
55675;BME280;41562;44.330;23.802;2023-04-10T12:02:07;100417.66;;;15.18;66.88
55675;BME280;41562;44.330;23.802;2023-04-10T12:04:36;100417.69;;;14.85;70.02
55675;BME280;41562;44.330;23.802;2023-04-10T12:07:04;100411.66;;;14.75;69.53
55675;BME280;41562;44.330;23.802;2023-04-10T12:09:31;100410.06;;;14.36;68.84
55675;BME280;41562;44.330;23.802;2023-04-10T12:12:03;100409.28;;;14.17;70.23
55675;BME280;41562;44.330;23.802;2023-04-10T12:14:36;100408.78;;;14.15;68.16
55675;BME280;41562;44.330;23.802;2023-04-10T12:17:10;100414.00;;;14.06;66.21
55675;BME280;41562;44.330;23.802;2023-04-10T12:19:39;100402.16;;;14.07;66.46
55675;BME280;41562;44.330;23.802;2023-04-10T12:22:06;100409.94;;;14.09;65.36
55675;BME280;41562;44.330;23.802;2023-04-10T12:27:20;100399.25;;;14.23;70.21
55675;BME280;41562;44.330;23.802;2023-04-10T12:29:50;100397.66;;;14.22;69.93
55675;BME280;41562;44.330;23.802;2023-04-10T12:32:18;100403.09;;;13.98;72.49
55675;BME280;41562;44.330;23.802;2023-04-10T12:34:57;100400.72;;;13.96;72.69
55675;BME280;41562;44.330;23.802;2023-04-10T12:37:49;100388.34;;;13.95;73.84
55675;BME280;41562;44.330;23.802;2023-04-10T12:40:17;100396.47;;;13.90;74.46
55675;BME280;41562;44.330;23.802;2023-04-10T12:42:44;100389.00;;;14.06;72.99
55675;BME280;41562;44.330;23.802;2023-04-10T12:45:12;100383.97;;;13.99;70.83
55675;BME280;41562;44.330;23.802;2023-04-10T12:47:47;100385.66;;;14.33;71.03
55675;BME280;41562;44.330;23.802;2023-04-10T12:50:16;100386.09;;;14.21;70.61
55675;BME280;41562;44.330;23.802;2023-04-10T12:52:45;100380.50;;;14.18;70.67
55675;BME280;41562;44.330;23.802;2023-04-10T12:55:27;100377.06;;;14.31;71.59
55675;BME280;41562;44.330;23.802;2023-04-10T12:57:55;100365.94;;;14.56;70.02
55675;BME280;41562;44.330;23.802;2023-04-10T13:00:22;100353.53;;;14.60;72.17
55675;BME280;41562;44.330;23.802;2023-04-10T13:02:50;100351.91;;;14.59;72.75
55675;BME280;41562;44.330;23.802;2023-04-10T13:05:31;100341.63;;;14.61;69.68
55675;BME280;41562;44.330;23.802;2023-04-10T13:07:59;100341.81;;;14.51;64.95
55675;BME280;41562;44.330;23.802;2023-04-10T13:10:27;100348.94;;;14.42;65.57
55675;BME280;41562;44.330;23.802;2023-04-10T13:12:54;100342.34;;;14.34;67.18
55675;BME280;41562;44.330;23.802;2023-04-10T13:15:21;100349.03;;;14.69;66.03
55675;BME280;41562;44.330;23.802;2023-04-10T13:17:52;100346.28;;;14.88;62.43
55675;BME280;41562;44.330;23.802;2023-04-10T13:20:22;100350.56;;;14.75;64.30
55675;BME280;41562;44.330;23.802;2023-04-10T13:22:49;100340.72;;;15.12;61.84
55675;BME280;41562;44.330;23.802;2023-04-10T13:25:17;100341.75;;;15.02;63.68
55675;BME280;41562;44.330;23.802;2023-04-10T13:27:45;100333.75;;;14.97;64.51
55675;BME280;41562;44.330;23.802;2023-04-10T13:30:13;100328.13;;;14.66;64.19
55675;BME280;41562;44.330;23.802;2023-04-10T13:32:40;100327.69;;;14.59;64.46
55675;BME280;41562;44.330;23.802;2023-04-10T13:35:13;100325.44;;;14.80;66.34
55675;BME280;41562;44.330;23.802;2023-04-10T13:37:40;100325.94;;;14.82;61.89